sensor_id;sensor_type;location;lat;lon;timestamp;temperature;humidity
59307;DHT22;47983;53.016;-2.260;2023-07-29T00:00:12;16.70;99.90
59307;DHT22;47983;53.016;-2.260;2023-07-29T00:02:41;16.70;99.90
59307;DHT22;47983;53.016;-2.260;2023-07-29T00:05:09;16.70;99.90
59307;DHT22;47983;53.016;-2.260;2023-07-29T00:07:37;16.60;99.90
59307;DHT22;47983;53.016;-2.260;2023-07-29T00:10:06;16.60;99.90
59307;DHT22;47983;53.016;-2.260;2023-07-29T00:12:33;16.60;99.90
59307;DHT22;47983;53.016;-2.260;2023-07-29T00:15:01;16.60;99.90
59307;DHT22;47983;53.016;-2.260;2023-07-29T00:17:29;16.50;99.90
59307;DHT22;47983;53.016;-2.260;2023-07-29T00:19:57;16.50;99.90
59307;DHT22;47983;53.016;-2.260;2023-07-29T00:22:24;16.50;99.90
59307;DHT22;47983;53.016;-2.260;2023-07-29T00:24:53;16.50;99.90
59307;DHT22;47983;53.016;-2.260;2023-07-29T00:27:25;16.50;99.90
59307;DHT22;47983;53.016;-2.260;2023-07-29T00:29:55;16.40;99.90
59307;DHT22;47983;53.016;-2.260;2023-07-29T00:32:23;16.40;99.90
59307;DHT22;47983;53.016;-2.260;2023-07-29T00:34:50;16.40;99.90
59307;DHT22;47983;53.016;-2.260;2023-07-29T00:37:18;16.30;99.90
59307;DHT22;47983;53.016;-2.260;2023-07-29T00:39:46;16.30;99.90
59307;DHT22;47983;53.016;-2.260;2023-07-29T00:42:13;16.30;99.90
59307;DHT22;47983;53.016;-2.260;2023-07-29T00:44:41;16.30;99.90
59307;DHT22;47983;53.016;-2.260;2023-07-29T00:47:11;16.20;99.90
59307;DHT22;47983;53.016;-2.260;2023-07-29T00:49:40;16.20;99.90
59307;DHT22;47983;53.016;-2.260;2023-07-29T00:52:08;16.20;99.90
59307;DHT22;47983;53.016;-2.260;2023-07-29T00:54:35;16.20;99.90
59307;DHT22;47983;53.016;-2.260;2023-07-29T00:57:03;16.20;99.90
59307;DHT22;47983;53.016;-2.260;2023-07-29T00:59:31;16.20;99.90
59307;DHT22;47983;53.016;-2.260;2023-07-29T01:02:00;16.20;99.90
59307;DHT22;47983;53.016;-2.260;2023-07-29T01:04:28;16.10;99.90
59307;DHT22;47983;53.016;-2.260;2023-07-29T01:12:36;16.10;99.90
59307;DHT22;47983;53.016;-2.260;2023-07-29T01:15:25;16.10;99.90
59307;DHT22;47983;53.016;-2.260;2023-07-29T01:18:02;16.10;99.90
59307;DHT22;47983;53.016;-2.260;2023-07-29T01:20:33;16.10;99.90
59307;DHT22;47983;53.016;-2.260;2023-07-29T01:23:01;16.10;99.90
59307;DHT22;47983;53.016;-2.260;2023-07-29T01:25:29;16.00;99.90
59307;DHT22;47983;53.016;-2.260;2023-07-29T01:27:57;16.00;99.90
59307;DHT22;47983;53.016;-2.260;2023-07-29T01:30:30;16.00;99.90
59307;DHT22;47983;53.016;-2.260;2023-07-29T01:33:08;16.00;99.90
59307;DHT22;47983;53.016;-2.260;2023-07-29T01:35:50;15.90;99.90
59307;DHT22;47983;53.016;-2.260;2023-07-29T01:38:20;15.90;99.90
59307;DHT22;47983;53.016;-2.260;2023-07-29T01:40:52;15.90;99.90
59307;DHT22;47983;53.016;-2.260;2023-07-29T01:43:20;15.80;99.90
59307;DHT22;47983;53.016;-2.260;2023-07-29T01:45:53;15.80;99.90
59307;DHT22;47983;53.016;-2.260;2023-07-29T01:48:21;15.80;99.90
59307;DHT22;47983;53.016;-2.260;2023-07-29T01:50:50;15.80;99.90
59307;DHT22;47983;53.016;-2.260;2023-07-29T01:53:18;15.80;99.90
59307;DHT22;47983;53.016;-2.260;2023-07-29T01:55:46;15.70;99.90
59307;DHT22;47983;53.016;-2.260;2023-07-29T01:58:14;15.70;99.90
59307;DHT22;47983;53.016;-2.260;2023-07-29T02:00:46;15.70;99.90
59307;DHT22;47983;53.016;-2.260;2023-07-29T02:03:14;15.70;99.90
59307;DHT22;47983;53.016;-2.260;2023-07-29T02:05:41;15.70;99.90
59307;DHT22;47983;53.016;-2.260;2023-07-29T02:08:11;15.70;99.90
59307;DHT22;47983;53.016;-2.260;2023-07-29T02:10:39;15.60;99.90
59307;DHT22;47983;53.016;-2.260;2023-07-29T02:13:07;15.60;99.90
59307;DHT22;47983;53.016;-2.260;2023-07-29T02:15:35;15.60;99.90
59307;DHT22;47983;53.016;-2.260;2023-07-29T02:18:02;15.60;99.90
59307;DHT22;47983;53.016;-2.260;2023-07-29T02:20:31;15.60;99.90
59307;DHT22;47983;53.016;-2.260;2023-07-29T02:22:58;15.50;99.90
59307;DHT22;47983;53.016;-2.260;2023-07-29T02:25:26;15.50;99.90
59307;DHT22;47983;53.016;-2.260;2023-07-29T02:27:54;15.50;99.90
59307;DHT22;47983;53.016;-2.260;2023-07-29T02:30:22;15.50;99.90
59307;DHT22;47983;53.016;-2.260;2023-07-29T02:32:50;15.50;99.90
59307;DHT22;47983;53.016;-2.260;2023-07-29T02:35:17;15.40;99.90
59307;DHT22;47983;53.016;-2.260;2023-07-29T02:37:45;15.40;99.90
59307;DHT22;47983;53.016;-2.260;2023-07-29T02:40:14;15.40;99.90
59307;DHT22;47983;53.016;-2.260;2023-07-29T02:42:41;15.40;99.90
59307;DHT22;47983;53.016;-2.260;2023-07-29T02:48:19;15.30;99.90
59307;DHT22;47983;53.016;-2.260;2023-07-29T02:50:47;15.30;99.90
59307;DHT22;47983;53.016;-2.260;2023-07-29T02:53:15;15.30;99.90
59307;DHT22;47983;53.016;-2.260;2023-07-29T02:55:42;15.30;99.90
59307;DHT22;47983;53.016;-2.260;2023-07-29T02:58:10;15.20;99.90
59307;DHT22;47983;53.016;-2.260;2023-07-29T03:00:38;15.20;99.90
59307;DHT22;47983;53.016;-2.260;2023-07-29T03:03:09;15.20;99.90
59307;DHT22;47983;53.016;-2.260;2023-07-29T03:05:37;15.20;99.90
59307;DHT22;47983;53.016;-2.260;2023-07-29T03:08:05;15.20;99.90
59307;DHT22;47983;53.016;-2.260;2023-07-29T03:10:35;15.10;99.90
59307;DHT22;47983;53.016;-2.260;2023-07-29T03:13:03;15.10;99.90
59307;DHT22;47983;53.016;-2.260;2023-07-29T03:15:31;15.00;99.90
59307;DHT22;47983;53.016;-2.260;2023-07-29T03:18:01;15.00;99.90
59307;DHT22;47983;53.016;-2.260;2023-07-29T03:20:29;15.00;99.90
59307;DHT22;47983;53.016;-2.260;2023-07-29T03:22:56;14.90;99.90
59307;DHT22;47983;53.016;-2.260;2023-07-29T03:25:24;14.90;99.90
59307;DHT22;47983;53.016;-2.260;2023-07-29T03:27:52;14.90;99.90
59307;DHT22;47983;53.016;-2.260;2023-07-29T03:30:21;14.80;99.90
59307;DHT22;47983;53.016;-2.260;2023-07-29T03:32:50;14.90;99.90
59307;DHT22;47983;53.016;-2.260;2023-07-29T03:35:18;14.90;99.90
59307;DHT22;47983;53.016;-2.260;2023-07-29T03:37:46;15.00;99.90
59307;DHT22;47983;53.016;-2.260;2023-07-29T03:40:15;14.80;99.90
59307;DHT22;47983;53.016;-2.260;2023-07-29T03:42:42;14.80;99.90
59307;DHT22;47983;53.016;-2.260;2023-07-29T03:45:10;14.80;99.90
59307;DHT22;47983;53.016;-2.260;2023-07-29T03:47:37;14.80;99.90
59307;DHT22;47983;53.016;-2.260;2023-07-29T03:50:05;14.80;99.90
59307;DHT22;47983;53.016;-2.260;2023-07-29T03:52:33;14.70;99.90
59307;DHT22;47983;53.016;-2.260;2023-07-29T03:55:01;14.70;99.90
59307;DHT22;47983;53.016;-2.260;2023-07-29T03:57:29;14.70;99.90
59307;DHT22;47983;53.016;-2.260;2023-07-29T03:59:57;14.70;99.90
59307;DHT22;47983;53.016;-2.260;2023-07-29T04:02:25;14.60;99.90
59307;DHT22;47983;53.016;-2.260;2023-07-29T04:04:52;14.60;99.90
59307;DHT22;47983;53.016;-2.260;2023-07-29T04:07:20;14.50;99.90
59307;DHT22;47983;53.016;-2.260;2023-07-29T04:09:48;14.50;99.90
59307;DHT22;47983;53.016;-2.260;2023-07-29T04:12:16;14.60;99.90
59307;DHT22;47983;53.016;-2.260;2023-07-29T04:17:12;14.50;99.90
59307;DHT22;47983;53.016;-2.260;2023-07-29T04:19:40;14.50;99.90
59307;DHT22;47983;53.016;-2.260;2023-07-29T04:22:08;14.60;99.90
59307;DHT22;47983;53.016;-2.260;2023-07-29T04:24:35;14.50;99.90
59307;DHT22;47983;53.016;-2.260;2023-07-29T04:27:03;14.60;99.90
59307;DHT22;47983;53.016;-2.260;2023-07-29T04:29:31;14.60;99.90
59307;DHT22;47983;53.016;-2.260;2023-07-29T04:31:59;14.60;99.90
59307;DHT22;47983;53.016;-2.260;2023-07-29T04:34:29;14.60;99.90
59307;DHT22;47983;53.016;-2.260;2023-07-29T04:36:57;14.60;99.90
59307;DHT22;47983;53.016;-2.260;2023-07-29T04:39:25;14.60;99.90
59307;DHT22;47983;53.016;-2.260;2023-07-29T04:41:53;14.60;99.90
59307;DHT22;47983;53.016;-2.260;2023-07-29T04:44:20;14.60;99.90
59307;DHT22;47983;53.016;-2.260;2023-07-29T04:46:56;14.70;99.90
59307;DHT22;47983;53.016;-2.260;2023-07-29T04:49:24;14.70;99.90
59307;DHT22;47983;53.016;-2.260;2023-07-29T04:51:52;14.60;99.90
59307;DHT22;47983;53.016;-2.260;2023-07-29T04:54:20;14.70;99.90
59307;DHT22;47983;53.016;-2.260;2023-07-29T04:56:48;14.70;99.90
59307;DHT22;47983;53.016;-2.260;2023-07-29T04:59:17;14.70;99.90
59307;DHT22;47983;53.016;-2.260;2023-07-29T05:01:45;14.70;99.90
59307;DHT22;47983;53.016;-2.260;2023-07-29T05:04:13;14.70;99.90
59307;DHT22;47983;53.016;-2.260;2023-07-29T05:06:41;14.70;99.90
59307;DHT22;47983;53.016;-2.260;2023-07-29T05:09:13;14.80;99.90
59307;DHT22;47983;53.016;-2.260;2023-07-29T05:11:42;14.70;99.90
59307;DHT22;47983;53.016;-2.260;2023-07-29T05:14:13;14.70;99.90
59307;DHT22;47983;53.016;-2.260;2023-07-29T05:16:42;14.70;99.90
59307;DHT22;47983;53.016;-2.260;2023-07-29T05:19:10;14.70;99.90
59307;DHT22;47983;53.016;-2.260;2023-07-29T05:21:38;14.60;99.90
59307;DHT22;47983;53.016;-2.260;2023-07-29T05:24:06;14.70;99.90
59307;DHT22;47983;53.016;-2.260;2023-07-29T05:26:34;14.70;99.90
59307;DHT22;47983;53.016;-2.260;2023-07-29T05:29:02;14.70;99.90
59307;DHT22;47983;53.016;-2.260;2023-07-29T05:31:31;14.70;99.90
59307;DHT22;47983;53.016;-2.260;2023-07-29T05:33:59;14.70;99.90
59307;DHT22;47983;53.016;-2.260;2023-07-29T05:36:27;14.70;99.90
59307;DHT22;47983;53.016;-2.260;2023-07-29T05:38:55;14.80;99.90
59307;DHT22;47983;53.016;-2.260;2023-07-29T05:41:23;14.80;99.90
59307;DHT22;47983;53.016;-2.260;2023-07-29T05:43:51;14.60;99.90
59307;DHT22;47983;53.016;-2.260;2023-07-29T05:46:19;14.80;99.90
59307;DHT22;47983;53.016;-2.260;2023-07-29T05:48:46;14.80;99.90
59307;DHT22;47983;53.016;-2.260;2023-07-29T05:51:14;14.90;99.90
59307;DHT22;47983;53.016;-2.260;2023-07-29T05:53:42;14.80;99.90
59307;DHT22;47983;53.016;-2.260;2023-07-29T05:56:10;14.80;99.90
59307;DHT22;47983;53.016;-2.260;2023-07-29T06:01:07;14.80;99.90
59307;DHT22;47983;53.016;-2.260;2023-07-29T06:03:34;14.70;99.90
59307;DHT22;47983;53.016;-2.260;2023-07-29T06:06:03;14.70;99.90
59307;DHT22;47983;53.016;-2.260;2023-07-29T06:08:30;14.80;99.90
59307;DHT22;47983;53.016;-2.260;2023-07-29T06:11:01;14.90;99.90
59307;DHT22;47983;53.016;-2.260;2023-07-29T06:13:29;14.90;99.90
59307;DHT22;47983;53.016;-2.260;2023-07-29T06:15:57;15.10;99.90
59307;DHT22;47983;53.016;-2.260;2023-07-29T06:18:26;15.10;99.90
59307;DHT22;47983;53.016;-2.260;2023-07-29T06:20:54;15.20;99.90
59307;DHT22;47983;53.016;-2.260;2023-07-29T06:23:22;15.30;99.90
59307;DHT22;47983;53.016;-2.260;2023-07-29T06:25:51;15.10;99.90
59307;DHT22;47983;53.016;-2.260;2023-07-29T06:28:19;15.40;99.90
59307;DHT22;47983;53.016;-2.260;2023-07-29T06:30:46;15.40;99.90
59307;DHT22;47983;53.016;-2.260;2023-07-29T06:33:14;15.50;99.90
59307;DHT22;47983;53.016;-2.260;2023-07-29T06:35:42;15.60;99.90
59307;DHT22;47983;53.016;-2.260;2023-07-29T06:38:10;15.60;99.90
59307;DHT22;47983;53.016;-2.260;2023-07-29T06:40:37;15.80;99.90
59307;DHT22;47983;53.016;-2.260;2023-07-29T06:43:05;15.90;99.90
59307;DHT22;47983;53.016;-2.260;2023-07-29T06:45:33;15.90;99.90
59307;DHT22;47983;53.016;-2.260;2023-07-29T06:48:01;15.90;99.90
59307;DHT22;47983;53.016;-2.260;2023-07-29T06:50:29;16.00;99.90
59307;DHT22;47983;53.016;-2.260;2023-07-29T06:52:56;16.00;99.90
59307;DHT22;47983;53.016;-2.260;2023-07-29T07:00:20;16.10;99.90
59307;DHT22;47983;53.016;-2.260;2023-07-29T07:02:49;16.20;99.90
59307;DHT22;47983;53.016;-2.260;2023-07-29T07:05:17;16.20;99.90
59307;DHT22;47983;53.016;-2.260;2023-07-29T07:07:44;16.30;99.90
59307;DHT22;47983;53.016;-2.260;2023-07-29T07:10:15;16.30;99.90
59307;DHT22;47983;53.016;-2.260;2023-07-29T07:12:43;16.30;99.90
59307;DHT22;47983;53.016;-2.260;2023-07-29T07:15:10;16.40;99.90
59307;DHT22;47983;53.016;-2.260;2023-07-29T07:17:38;16.50;99.90
59307;DHT22;47983;53.016;-2.260;2023-07-29T07:20:07;16.60;99.90
59307;DHT22;47983;53.016;-2.260;2023-07-29T07:22:34;17.40;99.90
59307;DHT22;47983;53.016;-2.260;2023-07-29T07:25:03;16.60;99.90
59307;DHT22;47983;53.016;-2.260;2023-07-29T07:27:33;16.60;99.90
59307;DHT22;47983;53.016;-2.260;2023-07-29T07:30:01;16.60;99.90
59307;DHT22;47983;53.016;-2.260;2023-07-29T07:32:29;16.60;99.90
59307;DHT22;47983;53.016;-2.260;2023-07-29T07:34:56;16.70;99.90
59307;DHT22;47983;53.016;-2.260;2023-07-29T07:37:24;16.70;99.90
59307;DHT22;47983;53.016;-2.260;2023-07-29T07:39:52;16.80;99.90
59307;DHT22;47983;53.016;-2.260;2023-07-29T07:44:48;16.90;99.90
59307;DHT22;47983;53.016;-2.260;2023-07-29T07:47:16;16.90;99.90
59307;DHT22;47983;53.016;-2.260;2023-07-29T07:49:43;17.00;99.90
59307;DHT22;47983;53.016;-2.260;2023-07-29T07:52:11;17.00;99.90
59307;DHT22;47983;53.016;-2.260;2023-07-29T07:54:39;17.10;99.90
59307;DHT22;47983;53.016;-2.260;2023-07-29T07:57:06;17.10;99.90
59307;DHT22;47983;53.016;-2.260;2023-07-29T07:59:34;17.10;99.90
59307;DHT22;47983;53.016;-2.260;2023-07-29T08:02:02;17.20;99.90
59307;DHT22;47983;53.016;-2.260;2023-07-29T08:04:30;17.30;99.90
59307;DHT22;47983;53.016;-2.260;2023-07-29T08:09:26;17.30;99.90
59307;DHT22;47983;53.016;-2.260;2023-07-29T08:14:23;17.00;99.90
59307;DHT22;47983;53.016;-2.260;2023-07-29T08:16:51;17.00;99.90
59307;DHT22;47983;53.016;-2.260;2023-07-29T08:19:18;16.90;99.90
59307;DHT22;47983;53.016;-2.260;2023-07-29T08:21:49;16.90;99.90
59307;DHT22;47983;53.016;-2.260;2023-07-29T08:24:17;17.00;99.90
59307;DHT22;47983;53.016;-2.260;2023-07-29T08:26:45;17.00;99.90
59307;DHT22;47983;53.016;-2.260;2023-07-29T08:29:13;17.00;99.90
59307;DHT22;47983;53.016;-2.260;2023-07-29T08:31:41;17.10;99.90
59307;DHT22;47983;53.016;-2.260;2023-07-29T08:34:09;17.10;99.90
59307;DHT22;47983;53.016;-2.260;2023-07-29T08:36:37;17.20;99.90
59307;DHT22;47983;53.016;-2.260;2023-07-29T08:39:05;17.30;99.90
59307;DHT22;47983;53.016;-2.260;2023-07-29T08:42:09;17.40;99.90
59307;DHT22;47983;53.016;-2.260;2023-07-29T08:44:43;17.50;99.90
59307;DHT22;47983;53.016;-2.260;2023-07-29T08:47:12;17.50;99.90
59307;DHT22;47983;53.016;-2.260;2023-07-29T08:49:46;17.70;99.90
59307;DHT22;47983;53.016;-2.260;2023-07-29T08:52:14;17.60;99.90
59307;DHT22;47983;53.016;-2.260;2023-07-29T08:54:42;17.70;99.90
59307;DHT22;47983;53.016;-2.260;2023-07-29T08:57:10;17.70;99.90
59307;DHT22;47983;53.016;-2.260;2023-07-29T08:59:38;17.90;99.90
59307;DHT22;47983;53.016;-2.260;2023-07-29T09:04:35;17.90;99.90
59307;DHT22;47983;53.016;-2.260;2023-07-29T09:07:05;18.20;99.90
59307;DHT22;47983;53.016;-2.260;2023-07-29T09:09:34;18.10;99.90
59307;DHT22;47983;53.016;-2.260;2023-07-29T09:12:02;18.30;99.90
59307;DHT22;47983;53.016;-2.260;2023-07-29T09:14:30;18.40;99.90
59307;DHT22;47983;53.016;-2.260;2023-07-29T09:16:59;18.40;99.90
59307;DHT22;47983;53.016;-2.260;2023-07-29T09:19:27;18.40;99.90
59307;DHT22;47983;53.016;-2.260;2023-07-29T09:26:52;18.40;99.90
59307;DHT22;47983;53.016;-2.260;2023-07-29T09:29:22;18.30;99.90
59307;DHT22;47983;53.016;-2.260;2023-07-29T09:31:51;18.20;99.90
59307;DHT22;47983;53.016;-2.260;2023-07-29T09:34:19;17.30;99.90
59307;DHT22;47983;53.016;-2.260;2023-07-29T09:36:50;16.90;99.90
59307;DHT22;47983;53.016;-2.260;2023-07-29T09:39:18;16.70;99.90
59307;DHT22;47983;53.016;-2.260;2023-07-29T09:41:51;16.40;99.90
59307;DHT22;47983;53.016;-2.260;2023-07-29T09:44:19;16.30;99.90
59307;DHT22;47983;53.016;-2.260;2023-07-29T09:46:49;16.30;99.90
59307;DHT22;47983;53.016;-2.260;2023-07-29T09:49:17;16.30;99.90
59307;DHT22;47983;53.016;-2.260;2023-07-29T09:51:45;16.40;99.90
59307;DHT22;47983;53.016;-2.260;2023-07-29T09:54:13;16.40;99.90
59307;DHT22;47983;53.016;-2.260;2023-07-29T09:56:43;16.50;99.90
59307;DHT22;47983;53.016;-2.260;2023-07-29T09:59:12;16.50;99.90
59307;DHT22;47983;53.016;-2.260;2023-07-29T10:01:41;16.60;99.90
59307;DHT22;47983;53.016;-2.260;2023-07-29T10:04:09;16.70;99.90
59307;DHT22;47983;53.016;-2.260;2023-07-29T10:06:41;16.90;99.90
59307;DHT22;47983;53.016;-2.260;2023-07-29T10:09:11;17.20;99.90
59307;DHT22;47983;53.016;-2.260;2023-07-29T10:11:41;17.30;99.90
59307;DHT22;47983;53.016;-2.260;2023-07-29T10:14:09;17.50;99.90
59307;DHT22;47983;53.016;-2.260;2023-07-29T10:16:37;17.70;99.90
59307;DHT22;47983;53.016;-2.260;2023-07-29T10:19:07;17.90;99.90
59307;DHT22;47983;53.016;-2.260;2023-07-29T10:21:38;18.10;99.90
59307;DHT22;47983;53.016;-2.260;2023-07-29T10:24:11;18.10;99.90
59307;DHT22;47983;53.016;-2.260;2023-07-29T10:26:46;18.40;99.90
59307;DHT22;47983;53.016;-2.260;2023-07-29T10:29:14;18.60;99.90
59307;DHT22;47983;53.016;-2.260;2023-07-29T10:31:45;18.60;99.90
59307;DHT22;47983;53.016;-2.260;2023-07-29T10:34:14;18.90;99.90
59307;DHT22;47983;53.016;-2.260;2023-07-29T10:36:42;19.00;99.90
59307;DHT22;47983;53.016;-2.260;2023-07-29T10:39:10;19.10;99.90
59307;DHT22;47983;53.016;-2.260;2023-07-29T10:42:01;19.10;99.90
59307;DHT22;47983;53.016;-2.260;2023-07-29T10:47:13;19.10;99.90
59307;DHT22;47983;53.016;-2.260;2023-07-29T10:49:45;19.00;99.90
59307;DHT22;47983;53.016;-2.260;2023-07-29T10:52:14;19.00;99.90
59307;DHT22;47983;53.016;-2.260;2023-07-29T10:54:44;19.00;99.90
59307;DHT22;47983;53.016;-2.260;2023-07-29T10:57:18;18.90;99.90
59307;DHT22;47983;53.016;-2.260;2023-07-29T11:02:34;19.00;99.90
59307;DHT22;47983;53.016;-2.260;2023-07-29T11:05:28;19.20;99.90
59307;DHT22;47983;53.016;-2.260;2023-07-29T11:07:54;19.30;99.90
59307;DHT22;47983;53.016;-2.260;2023-07-29T11:12:51;19.70;99.90
59307;DHT22;47983;53.016;-2.260;2023-07-29T11:15:20;19.90;99.90
59307;DHT22;47983;53.016;-2.260;2023-07-29T11:17:51;20.10;99.90
59307;DHT22;47983;53.016;-2.260;2023-07-29T11:20:21;20.30;99.90
59307;DHT22;47983;53.016;-2.260;2023-07-29T11:22:50;20.50;99.90
59307;DHT22;47983;53.016;-2.260;2023-07-29T11:25:19;20.60;99.90
59307;DHT22;47983;53.016;-2.260;2023-07-29T11:27:46;20.70;99.90
59307;DHT22;47983;53.016;-2.260;2023-07-29T11:30:15;20.90;99.90
59307;DHT22;47983;53.016;-2.260;2023-07-29T11:32:45;20.90;99.90
59307;DHT22;47983;53.016;-2.260;2023-07-29T11:35:16;21.20;99.90
59307;DHT22;47983;53.016;-2.260;2023-07-29T11:37:48;21.40;99.90
59307;DHT22;47983;53.016;-2.260;2023-07-29T11:40:18;21.40;99.90
59307;DHT22;47983;53.016;-2.260;2023-07-29T11:42:47;21.50;99.90
59307;DHT22;47983;53.016;-2.260;2023-07-29T11:45:15;21.40;99.90
59307;DHT22;47983;53.016;-2.260;2023-07-29T11:47:45;21.40;99.90
59307;DHT22;47983;53.016;-2.260;2023-07-29T11:50:14;21.50;99.90
59307;DHT22;47983;53.016;-2.260;2023-07-29T11:52:44;21.40;99.90
59307;DHT22;47983;53.016;-2.260;2023-07-29T11:55:13;21.40;99.90
59307;DHT22;47983;53.016;-2.260;2023-07-29T11:57:43;21.50;99.90
59307;DHT22;47983;53.016;-2.260;2023-07-29T12:00:12;21.50;99.90
59307;DHT22;47983;53.016;-2.260;2023-07-29T12:02:43;21.40;99.90
59307;DHT22;47983;53.016;-2.260;2023-07-29T12:05:14;21.60;99.90
59307;DHT22;47983;53.016;-2.260;2023-07-29T12:07:43;21.60;99.90
59307;DHT22;47983;53.016;-2.260;2023-07-29T12:10:11;21.70;99.90
59307;DHT22;47983;53.016;-2.260;2023-07-29T12:12:47;22.00;99.90
59307;DHT22;47983;53.016;-2.260;2023-07-29T12:15:26;22.20;99.90
59307;DHT22;47983;53.016;-2.260;2023-07-29T12:17:56;22.20;99.90
59307;DHT22;47983;53.016;-2.260;2023-07-29T12:20:25;22.40;99.80
59307;DHT22;47983;53.016;-2.260;2023-07-29T12:22:58;22.40;99.30
59307;DHT22;47983;53.016;-2.260;2023-07-29T12:25:27;22.30;99.70
59307;DHT22;47983;53.016;-2.260;2023-07-29T12:27:55;22.20;99.90
59307;DHT22;47983;53.016;-2.260;2023-07-29T12:30:23;22.30;99.90
59307;DHT22;47983;53.016;-2.260;2023-07-29T12:32:52;22.70;99.90
59307;DHT22;47983;53.016;-2.260;2023-07-29T12:40:27;23.90;97.50
59307;DHT22;47983;53.016;-2.260;2023-07-29T12:42:56;24.30;97.80
59307;DHT22;47983;53.016;-2.260;2023-07-29T12:45:23;24.60;96.50
59307;DHT22;47983;53.016;-2.260;2023-07-29T12:47:55;24.80;95.20
59307;DHT22;47983;53.016;-2.260;2023-07-29T12:50:23;24.60;94.90
59307;DHT22;47983;53.016;-2.260;2023-07-29T12:52:51;24.40;94.90
59307;DHT22;47983;53.016;-2.260;2023-07-29T12:55:19;24.20;95.50
59307;DHT22;47983;53.016;-2.260;2023-07-29T12:57:50;24.50;95.70
59307;DHT22;47983;53.016;-2.260;2023-07-29T13:00:18;24.90;95.00
59307;DHT22;47983;53.016;-2.260;2023-07-29T13:02:46;24.80;95.20
59307;DHT22;47983;53.016;-2.260;2023-07-29T13:05:14;25.40;94.90
59307;DHT22;47983;53.016;-2.260;2023-07-29T13:07:43;25.30;95.20
59307;DHT22;47983;53.016;-2.260;2023-07-29T13:10:10;25.90;92.80
59307;DHT22;47983;53.016;-2.260;2023-07-29T13:12:39;25.90;93.00
59307;DHT22;47983;53.016;-2.260;2023-07-29T13:15:07;26.00;92.90
59307;DHT22;47983;53.016;-2.260;2023-07-29T13:17:35;26.10;91.70
59307;DHT22;47983;53.016;-2.260;2023-07-29T13:20:05;26.10;91.80
59307;DHT22;47983;53.016;-2.260;2023-07-29T13:22:33;26.00;91.40
59307;DHT22;47983;53.016;-2.260;2023-07-29T13:25:01;25.90;91.30
59307;DHT22;47983;53.016;-2.260;2023-07-29T13:27:29;25.50;92.10
59307;DHT22;47983;53.016;-2.260;2023-07-29T13:29:57;25.30;91.90
59307;DHT22;47983;53.016;-2.260;2023-07-29T13:32:25;25.30;92.10
59307;DHT22;47983;53.016;-2.260;2023-07-29T13:34:53;24.80;91.50
59307;DHT22;47983;53.016;-2.260;2023-07-29T13:37:21;23.70;92.60
59307;DHT22;47983;53.016;-2.260;2023-07-29T13:39:49;23.60;92.90
59307;DHT22;47983;53.016;-2.260;2023-07-29T13:42:17;23.40;94.00
59307;DHT22;47983;53.016;-2.260;2023-07-29T13:44:45;23.20;93.60
59307;DHT22;47983;53.016;-2.260;2023-07-29T13:47:12;22.90;94.00
59307;DHT22;47983;53.016;-2.260;2023-07-29T13:52:10;22.70;95.00
59307;DHT22;47983;53.016;-2.260;2023-07-29T13:54:38;22.70;95.50
59307;DHT22;47983;53.016;-2.260;2023-07-29T13:57:07;23.20;94.80
59307;DHT22;47983;53.016;-2.260;2023-07-29T13:59:34;23.60;94.00
59307;DHT22;47983;53.016;-2.260;2023-07-29T14:02:02;23.90;93.00
59307;DHT22;47983;53.016;-2.260;2023-07-29T14:04:31;24.10;93.60
59307;DHT22;47983;53.016;-2.260;2023-07-29T14:06:59;24.60;93.60
59307;DHT22;47983;53.016;-2.260;2023-07-29T14:09:28;25.40;92.10
59307;DHT22;47983;53.016;-2.260;2023-07-29T14:11:55;25.50;92.30
59307;DHT22;47983;53.016;-2.260;2023-07-29T14:14:26;25.80;91.30
59307;DHT22;47983;53.016;-2.260;2023-07-29T14:16:54;25.70;90.90
59307;DHT22;47983;53.016;-2.260;2023-07-29T14:19:22;25.60;91.00
59307;DHT22;47983;53.016;-2.260;2023-07-29T14:21:50;25.30;90.90
59307;DHT22;47983;53.016;-2.260;2023-07-29T14:24:17;25.10;92.10
59307;DHT22;47983;53.016;-2.260;2023-07-29T14:26:46;25.30;91.80
59307;DHT22;47983;53.016;-2.260;2023-07-29T14:29:14;25.50;92.10
59307;DHT22;47983;53.016;-2.260;2023-07-29T14:31:41;26.00;91.90
59307;DHT22;47983;53.016;-2.260;2023-07-29T14:34:09;26.30;91.30
59307;DHT22;47983;53.016;-2.260;2023-07-29T14:36:38;26.40;91.20
59307;DHT22;47983;53.016;-2.260;2023-07-29T14:39:06;26.70;90.70
59307;DHT22;47983;53.016;-2.260;2023-07-29T14:41:34;26.80;90.70
59307;DHT22;47983;53.016;-2.260;2023-07-29T14:44:02;26.90;91.00
59307;DHT22;47983;53.016;-2.260;2023-07-29T14:46:29;26.90;90.20
59307;DHT22;47983;53.016;-2.260;2023-07-29T14:48:57;27.00;89.90
59307;DHT22;47983;53.016;-2.260;2023-07-29T14:51:25;27.00;90.20
59307;DHT22;47983;53.016;-2.260;2023-07-29T14:53:53;27.10;89.40
59307;DHT22;47983;53.016;-2.260;2023-07-29T14:56:20;27.10;89.90
59307;DHT22;47983;53.016;-2.260;2023-07-29T14:58:50;27.20;86.80
59307;DHT22;47983;53.016;-2.260;2023-07-29T15:01:21;27.00;85.50
59307;DHT22;47983;53.016;-2.260;2023-07-29T15:03:51;27.00;86.10
59307;DHT22;47983;53.016;-2.260;2023-07-29T15:06:19;26.50;85.00
59307;DHT22;47983;53.016;-2.260;2023-07-29T15:08:47;26.40;85.40
59307;DHT22;47983;53.016;-2.260;2023-07-29T15:11:15;26.00;86.00
59307;DHT22;47983;53.016;-2.260;2023-07-29T15:13:43;25.50;87.80
59307;DHT22;47983;53.016;-2.260;2023-07-29T15:16:11;25.50;87.60
59307;DHT22;47983;53.016;-2.260;2023-07-29T15:18:39;25.50;89.90
59307;DHT22;47983;53.016;-2.260;2023-07-29T15:21:06;25.70;88.90
59307;DHT22;47983;53.016;-2.260;2023-07-29T15:26:02;26.40;88.00
59307;DHT22;47983;53.016;-2.260;2023-07-29T15:28:29;26.80;85.70
59307;DHT22;47983;53.016;-2.260;2023-07-29T15:30:57;26.90;85.10
59307;DHT22;47983;53.016;-2.260;2023-07-29T15:33:28;27.00;85.90
59307;DHT22;47983;53.016;-2.260;2023-07-29T15:35:56;27.10;85.00
59307;DHT22;47983;53.016;-2.260;2023-07-29T15:38:23;27.20;84.70
59307;DHT22;47983;53.016;-2.260;2023-07-29T15:40:51;27.30;85.00
59307;DHT22;47983;53.016;-2.260;2023-07-29T15:43:19;27.20;84.20
59307;DHT22;47983;53.016;-2.260;2023-07-29T15:45:47;26.80;84.00
59307;DHT22;47983;53.016;-2.260;2023-07-29T15:48:14;26.70;83.00
59307;DHT22;47983;53.016;-2.260;2023-07-29T15:50:42;26.80;83.50
59307;DHT22;47983;53.016;-2.260;2023-07-29T15:53:10;26.80;83.80
59307;DHT22;47983;53.016;-2.260;2023-07-29T15:55:38;27.10;83.40
59307;DHT22;47983;53.016;-2.260;2023-07-29T15:58:05;27.20;83.10
59307;DHT22;47983;53.016;-2.260;2023-07-29T16:00:33;27.50;81.70
59307;DHT22;47983;53.016;-2.260;2023-07-29T16:03:01;27.40;82.10
59307;DHT22;47983;53.016;-2.260;2023-07-29T16:05:29;27.20;82.80
59307;DHT22;47983;53.016;-2.260;2023-07-29T16:07:57;27.20;83.50
59307;DHT22;47983;53.016;-2.260;2023-07-29T16:10:25;26.90;82.80
59307;DHT22;47983;53.016;-2.260;2023-07-29T16:12:52;26.40;83.80
59307;DHT22;47983;53.016;-2.260;2023-07-29T16:15:20;26.40;84.40